createdAt,value
2022-08-03T00:02:27.196Z,20.60
2022-08-03T00:05:14.390Z,20.50
2022-08-03T00:08:08.190Z,20.50
2022-08-03T00:11:02.274Z,20.50
2022-08-03T00:13:57.184Z,20.50
2022-08-03T00:16:51.206Z,20.50
2022-08-03T00:19:38.335Z,20.40
2022-08-03T00:22:32.235Z,20.40
2022-08-03T00:25:26.197Z,20.50
2022-08-03T00:28:13.340Z,20.40
2022-08-03T00:31:07.192Z,20.40
2022-08-03T00:33:57.898Z,20.40
2022-08-03T00:36:53.220Z,20.40
2022-08-03T00:39:47.177Z,20.40
2022-08-03T00:42:41.214Z,20.30
2022-08-03T00:45:45.186Z,20.30
2022-08-03T00:48:33.802Z,20.30
2022-08-03T00:51:29.260Z,20.30
2022-08-03T00:54:18.781Z,20.30
2022-08-03T00:57:13.205Z,20.30
2022-08-03T01:00:00.930Z,20.30
2022-08-03T01:02:54.345Z,20.20
2022-08-03T01:06:10.230Z,20.20
2022-08-03T01:09:23.242Z,20.20
2022-08-03T01:12:27.274Z,20.20
2022-08-03T01:15:35.992Z,20.10
2022-08-03T01:18:34.226Z,20.20
2022-08-03T01:21:35.258Z,20.10
2022-08-03T01:25:02.295Z,20.10
2022-08-03T01:28:19.273Z,20.10
2022-08-03T01:31:09.891Z,20.10
2022-08-03T01:34:09.301Z,20.00
2022-08-03T01:37:06.251Z,20.00
2022-08-03T01:40:04.306Z,20.00
2022-08-03T01:42:52.728Z,20.00
2022-08-03T01:45:47.328Z,20.10
2022-08-03T01:48:37.810Z,20.00
2022-08-03T01:51:58.028Z,20.00
2022-08-03T01:54:50.312Z,20.00
2022-08-03T01:58:05.857Z,20.00
2022-08-03T02:00:55.400Z,20.00
2022-08-03T02:04:00.597Z,19.90
2022-08-03T02:06:56.827Z,19.90
2022-08-03T02:09:59.339Z,19.90
2022-08-03T02:12:51.074Z,19.90
2022-08-03T02:15:46.325Z,19.80
2022-08-03T02:18:34.228Z,19.80
2022-08-03T02:21:56.620Z,19.80
2022-08-03T02:24:38.997Z,19.80
2022-08-03T02:27:34.352Z,19.70
2022-08-03T02:30:23.784Z,19.70
2022-08-03T02:33:26.373Z,19.70
2022-08-03T02:36:22.366Z,19.70
2022-08-03T02:39:13.504Z,19.70
2022-08-03T02:42:12.802Z,19.60
2022-08-03T02:45:11.396Z,19.60
2022-08-03T02:48:10.377Z,19.60
2022-08-03T02:50:59.636Z,19.60
2022-08-03T02:53:54.391Z,19.60
2022-08-03T02:56:42.829Z,19.50
2022-08-03T02:59:38.431Z,19.50
2022-08-03T03:02:26.121Z,19.50
2022-08-03T03:05:56.153Z,19.50
2022-08-03T03:08:36.403Z,19.50
2022-08-03T03:11:34.623Z,19.50
2022-08-03T03:14:33.226Z,19.50
2022-08-03T03:17:28.497Z,19.50
2022-08-03T03:20:29.592Z,19.40
2022-08-03T03:23:24.452Z,19.40
2022-08-03T03:26:20.447Z,19.40
2022-08-03T03:29:08.026Z,19.40
2022-08-03T03:32:02.580Z,19.30
2022-08-03T03:34:50.401Z,19.30
2022-08-03T03:37:44.470Z,19.30
2022-08-03T03:40:38.505Z,19.30
2022-08-03T03:43:32.490Z,19.30
2022-08-03T03:46:20.120Z,19.20
2022-08-03T03:49:14.499Z,19.20
2022-08-03T03:52:01.789Z,19.20
2022-08-03T03:54:59.010Z,19.20
2022-08-03T03:57:48.122Z,19.20
2022-08-03T04:00:41.614Z,19.10
2022-08-03T04:03:28.776Z,19.20
2022-08-03T04:06:41.547Z,19.10
2022-08-03T04:09:47.620Z,19.10
2022-08-03T04:12:49.953Z,19.10
2022-08-03T04:15:42.126Z,19.10
2022-08-03T04:18:39.512Z,19.10
2022-08-03T04:21:28.650Z,19.00
2022-08-03T04:24:22.528Z,19.00
2022-08-03T04:27:24.568Z,19.00
2022-08-03T04:30:19.562Z,19.00
2022-08-03T04:33:07.485Z,19.00
2022-08-03T04:36:05.593Z,19.00
2022-08-03T04:39:16.546Z,19.00
2022-08-03T04:42:08.556Z,19.10
2022-08-03T04:45:04.568Z,19.00
2022-08-03T04:47:52.493Z,19.00
2022-08-03T04:50:47.586Z,19.00
2022-08-03T04:53:41.614Z,19.00
2022-08-03T04:56:35.583Z,19.00
2022-08-03T04:59:22.629Z,19.00
2022-08-03T05:02:16.813Z,19.00
2022-08-03T05:05:04.495Z,19.00
2022-08-03T05:07:58.625Z,19.00
2022-08-03T05:10:48.200Z,19.00
2022-08-03T05:13:41.603Z,19.00
2022-08-03T05:16:28.702Z,19.00
2022-08-03T05:19:22.614Z,19.00
2022-08-03T05:22:10.553Z,19.00
2022-08-03T05:25:04.704Z,19.00
2022-08-03T05:28:05.631Z,19.00
2022-08-03T05:30:59.632Z,19.00
2022-08-03T05:33:54.697Z,19.00
2022-08-03T05:36:41.862Z,19.10
2022-08-03T05:39:35.638Z,19.00
2022-08-03T05:42:29.661Z,19.10
2022-08-03T05:45:18.549Z,19.10
2022-08-03T05:48:12.657Z,19.10
2022-08-03T05:51:06.677Z,19.20
2022-08-03T05:53:53.753Z,19.20
2022-08-03T05:56:49.673Z,19.30
2022-08-03T05:59:54.592Z,19.30
2022-08-03T06:02:45.579Z,19.40
2022-08-03T06:05:43.406Z,19.40
2022-08-03T06:08:55.701Z,19.40
2022-08-03T06:11:42.771Z,19.50
2022-08-03T06:14:39.711Z,19.50
2022-08-03T06:17:26.839Z,19.50
2022-08-03T06:20:27.242Z,19.50
2022-08-03T06:23:16.226Z,19.60
2022-08-03T06:26:12.126Z,19.70
2022-08-03T06:29:00.713Z,19.70
2022-08-03T06:31:57.770Z,19.80
2022-08-03T06:34:44.829Z,19.80
2022-08-03T06:37:38.767Z,19.80
2022-08-03T06:40:37.767Z,19.90
2022-08-03T06:43:24.886Z,19.90
2022-08-03T06:46:18.759Z,20.00
2022-08-03T06:49:13.825Z,20.00
2022-08-03T06:52:07.801Z,20.00
2022-08-03T06:55:01.839Z,20.00
2022-08-03T06:57:55.761Z,20.10
2022-08-03T07:00:47.145Z,20.10
2022-08-03T07:03:40.769Z,20.10
2022-08-03T07:06:39.569Z,20.10
2022-08-03T07:09:33.797Z,20.20
2022-08-03T07:12:27.866Z,20.20
2022-08-03T07:15:54.141Z,20.30
2022-08-03T07:18:29.882Z,20.30
2022-08-03T07:21:23.837Z,20.30
2022-08-03T07:24:17.825Z,20.30
2022-08-03T07:27:05.065Z,20.30
2022-08-03T07:29:58.839Z,20.30
2022-08-03T07:32:49.773Z,20.40
2022-08-03T07:35:44.821Z,20.40
2022-08-03T07:38:31.990Z,20.50
2022-08-03T07:41:25.836Z,20.50
2022-08-03T07:44:19.862Z,20.60
2022-08-03T07:47:07.468Z,20.60
2022-08-03T07:50:02.913Z,20.70
2022-08-03T07:52:51.692Z,20.70
2022-08-03T07:55:45.872Z,20.80
2022-08-03T07:58:41.935Z,20.80
2022-08-03T08:01:32.836Z,20.90
2022-08-03T08:04:26.891Z,20.90
2022-08-03T08:07:14.032Z,21.00
2022-08-03T08:10:08.899Z,21.10
2022-08-03T08:12:56.292Z,21.20
2022-08-03T08:15:49.896Z,21.30
2022-08-03T08:18:43.893Z,21.30
2022-08-03T08:21:53.193Z,21.40
2022-08-03T08:24:45.046Z,21.60
2022-08-03T08:28:30.388Z,21.80
2022-08-03T08:30:52.558Z,22.00
2022-08-03T08:34:03.730Z,22.20
2022-08-03T08:36:57.947Z,22.20
2022-08-03T08:39:51.924Z,22.40
2022-08-03T08:42:57.998Z,22.60
2022-08-03T08:45:53.955Z,22.60
2022-08-03T08:48:50.933Z,22.70
2022-08-03T08:52:00.576Z,22.80
2022-08-03T08:54:48.906Z,23.00
2022-08-03T08:57:48.986Z,23.10
2022-08-03T09:00:42.997Z,23.20
2022-08-03T09:03:31.021Z,23.20
2022-08-03T09:06:25.070Z,23.20
2022-08-03T09:09:12.229Z,23.30
2022-08-03T09:12:42.621Z,23.30
2022-08-03T09:15:39.041Z,23.30
2022-08-03T09:18:33.343Z,23.60
2022-08-03T09:21:33.247Z,23.70
2022-08-03T09:24:41.277Z,23.90
2022-08-03T09:27:29.918Z,24.10
2022-08-03T09:30:34.099Z,24.20
2022-08-03T09:33:22.276Z,24.10
2022-08-03T09:36:16.070Z,24.20
2022-08-03T09:39:11.290Z,24.30
2022-08-03T09:42:19.058Z,24.50
2022-08-03T09:45:26.913Z,24.50
2022-08-03T09:48:41.075Z,24.60
2022-08-03T09:52:30.021Z,24.70
2022-08-03T09:54:42.053Z,24.90
2022-08-03T09:57:36.246Z,25.00
2022-08-03T10:00:30.030Z,25.20
2022-08-03T10:03:17.156Z,25.20
2022-08-03T10:06:32.315Z,25.40
2022-08-03T10:09:26.076Z,25.40
2022-08-03T10:12:14.396Z,25.50
2022-08-03T10:15:08.301Z,25.50
2022-08-03T10:18:22.164Z,25.50
2022-08-03T10:21:21.092Z,25.50
2022-08-03T10:24:10.733Z,25.50
2022-08-03T10:27:10.159Z,25.60
2022-08-03T10:30:03.545Z,25.70
2022-08-03T10:33:50.844Z,25.70
2022-08-03T10:36:34.141Z,25.70
2022-08-03T10:39:24.115Z,26.00
2022-08-03T10:42:18.132Z,26.20
2022-08-03T10:45:09.675Z,26.30
2022-08-03T10:48:06.145Z,26.50
2022-08-03T10:51:00.142Z,26.50
2022-08-03T10:53:55.846Z,26.50
2022-08-03T10:57:14.358Z,26.60
2022-08-03T11:00:05.010Z,26.60
2022-08-03T11:03:17.189Z,26.80
2022-08-03T11:06:28.269Z,26.90
2022-08-03T11:09:31.158Z,26.90
2022-08-03T11:12:31.363Z,26.90
2022-08-03T11:15:40.183Z,26.90
2022-08-03T11:18:34.168Z,27.10
2022-08-03T11:21:30.432Z,27.30
2022-08-03T11:25:00.233Z,27.40
2022-08-03T11:27:54.225Z,27.40
2022-08-03T11:30:48.188Z,27.40
2022-08-03T11:33:42.214Z,27.30
2022-08-03T11:36:32.319Z,27.40
2022-08-03T11:39:26.217Z,27.40
2022-08-03T11:42:22.525Z,27.40
2022-08-03T11:45:16.227Z,27.50
2022-08-03T11:48:26.393Z,27.50
2022-08-03T11:51:27.307Z,27.70
2022-08-03T11:54:21.247Z,27.70
2022-08-03T11:57:15.239Z,27.60
2022-08-03T12:00:09.248Z,27.70
2022-08-03T12:03:13.255Z,27.80
2022-08-03T12:06:11.259Z,27.70
2022-08-03T12:08:58.391Z,27.70
2022-08-03T12:12:00.214Z,28.00
2022-08-03T12:14:52.115Z,28.00
2022-08-03T12:17:48.305Z,28.30
2022-08-03T12:20:42.288Z,28.40
2022-08-03T12:23:29.759Z,28.40
2022-08-03T12:26:23.299Z,28.40
2022-08-03T12:29:27.339Z,28.60
2022-08-03T12:32:15.606Z,28.80
2022-08-03T12:35:11.296Z,29.10
2022-08-03T12:37:58.424Z,29.30
2022-08-03T12:40:53.299Z,29.30
2022-08-03T12:43:50.062Z,29.40
2022-08-03T12:46:47.934Z,29.50
2022-08-03T12:49:52.182Z,29.60
2022-08-03T12:52:52.375Z,29.40
2022-08-03T12:56:04.297Z,29.40
2022-08-03T12:58:54.339Z,29.50
2022-08-03T13:01:54.933Z,29.60
2022-08-03T13:04:49.339Z,29.70
2022-08-03T13:07:45.827Z,29.70
2022-08-03T13:10:41.365Z,29.70
2022-08-03T13:13:41.225Z,29.70
2022-08-03T13:16:35.366Z,29.50
2022-08-03T13:19:22.473Z,29.40
2022-08-03T13:22:23.431Z,29.50
2022-08-03T13:25:10.588Z,29.50
2022-08-03T13:28:06.099Z,29.70
2022-08-03T13:30:54.814Z,29.80
2022-08-03T13:34:02.411Z,29.80
2022-08-03T13:37:10.622Z,30.00
2022-08-03T13:40:02.240Z,29.90
2022-08-03T13:42:56.482Z,29.80
2022-08-03T13:45:53.707Z,29.80
2022-08-03T13:48:50.420Z,29.70
2022-08-03T13:51:44.462Z,29.60
2022-08-03T13:54:32.816Z,29.60
2022-08-03T13:58:02.554Z,29.70
2022-08-03T14:00:33.763Z,29.90
2022-08-03T14:03:27.487Z,30.10
2022-08-03T14:06:15.226Z,30.30
2022-08-03T14:09:09.445Z,30.60
2022-08-03T14:12:08.204Z,30.80
2022-08-03T14:15:02.614Z,30.80
2022-08-03T14:17:58.782Z,30.70
2022-08-03T14:20:47.685Z,30.70
2022-08-03T14:23:46.469Z,30.70
2022-08-03T14:26:46.500Z,30.80
2022-08-03T14:29:40.526Z,30.70
2022-08-03T14:32:28.352Z,30.60
2022-08-03T14:35:21.479Z,30.50
2022-08-03T14:38:08.957Z,30.50
2022-08-03T14:41:02.591Z,30.60
2022-08-03T14:44:01.214Z,30.70
2022-08-03T14:46:55.540Z,30.70
2022-08-03T14:50:33.638Z,30.80
2022-08-03T14:52:56.826Z,30.80
2022-08-03T14:55:52.052Z,30.80
2022-08-03T14:58:39.266Z,30.70
2022-08-03T15:02:03.459Z,30.70
2022-08-03T15:04:39.683Z,30.80
2022-08-03T15:07:33.638Z,31.00
2022-08-03T15:10:20.970Z,31.10
2022-08-03T15:13:20.584Z,30.90
2022-08-03T15:16:08.793Z,30.90
2022-08-03T15:19:02.610Z,30.90
2022-08-03T15:21:52.167Z,30.60
2022-08-03T15:24:45.559Z,30.50
2022-08-03T15:27:32.656Z,30.60
2022-08-03T15:30:26.560Z,30.70
2022-08-03T15:33:13.647Z,30.80
2022-08-03T15:36:14.635Z,30.70
2022-08-03T15:39:01.858Z,30.80
2022-08-03T15:41:55.604Z,30.90
2022-08-03T15:44:43.477Z,30.70
2022-08-03T15:47:37.648Z,30.50
2022-08-03T15:50:24.777Z,30.50
2022-08-03T15:53:18.609Z,30.50
2022-08-03T15:56:11.355Z,30.60
2022-08-03T15:59:13.430Z,30.90
2022-08-03T16:02:01.157Z,30.90
2022-08-03T16:04:54.636Z,30.80
2022-08-03T16:08:03.951Z,30.50
2022-08-03T16:10:58.672Z,30.40
2022-08-03T16:14:13.726Z,30.50
2022-08-03T16:16:59.647Z,30.50
2022-08-03T16:19:55.115Z,30.60
2022-08-03T16:22:48.567Z,30.80
2022-08-03T16:25:42.743Z,31.00
2022-08-03T16:28:31.108Z,31.20
2022-08-03T16:31:24.674Z,31.20
2022-08-03T16:34:11.775Z,30.90
2022-08-03T16:37:35.461Z,30.90
2022-08-03T16:40:20.698Z,30.80
2022-08-03T16:43:17.996Z,30.60
2022-08-03T16:46:12.701Z,30.30
2022-08-03T16:48:59.968Z,30.20
2022-08-03T16:51:54.172Z,29.90
2022-08-03T16:54:41.297Z,29.80
2022-08-03T16:57:58.517Z,29.70
2022-08-03T17:00:43.122Z,29.60
2022-08-03T17:04:02.025Z,29.50
2022-08-03T17:06:56.747Z,29.40
2022-08-03T17:09:45.834Z,29.40
2022-08-03T17:12:39.793Z,29.30
2022-08-03T17:15:38.460Z,29.20
2022-08-03T17:18:47.521Z,29.10
2022-08-03T17:21:45.745Z,29.10
2022-08-03T17:24:45.111Z,29.10
2022-08-03T17:28:50.555Z,29.00
2022-08-03T17:31:09.705Z,28.90
2022-08-03T17:34:17.805Z,28.90
2022-08-03T17:37:06.376Z,28.80
2022-08-03T17:40:03.784Z,28.90
2022-08-03T17:42:51.332Z,28.90
2022-08-03T17:45:52.926Z,28.90
2022-08-03T17:48:42.271Z,28.80
2022-08-03T17:51:52.880Z,28.70
2022-08-03T17:55:56.147Z,28.70
2022-08-03T17:58:41.869Z,28.60
2022-08-03T18:02:12.194Z,28.50
2022-08-03T18:05:17.857Z,28.40
2022-08-03T18:08:17.813Z,28.40
2022-08-03T18:11:16.812Z,28.30
2022-08-03T18:14:23.983Z,28.30
2022-08-03T18:17:23.839Z,28.20
2022-08-03T18:20:40.930Z,28.20
2022-08-03T18:23:37.694Z,28.10
2022-08-03T18:26:31.868Z,28.10
2022-08-03T18:29:27.856Z,28.00
2022-08-03T18:32:17.277Z,28.00
2022-08-03T18:35:13.609Z,27.90
2022-08-03T18:38:03.551Z,27.70
2022-08-03T18:41:14.570Z,27.60
2022-08-03T18:44:45.667Z,27.60
2022-08-03T18:47:52.838Z,27.50
2022-08-03T18:51:28.508Z,27.40
2022-08-03T18:54:51.700Z,27.30
2022-08-03T18:57:48.627Z,27.20
2022-08-03T19:00:54.232Z,27.10
2022-08-03T19:03:48.350Z,27.00
2022-08-03T19:06:49.887Z,26.90
2022-08-03T19:09:54.914Z,26.80
2022-08-03T19:13:00.951Z,26.70
2022-08-03T19:15:51.406Z,26.60
2022-08-03T19:18:46.908Z,26.60
2022-08-03T19:21:36.151Z,26.50
2022-08-03T19:24:31.923Z,26.50
2022-08-03T19:27:26.843Z,26.40
2022-08-03T19:30:53.697Z,26.30
2022-08-03T19:33:55.973Z,26.30
2022-08-03T19:36:52.001Z,26.20
2022-08-03T19:39:46.240Z,26.10
2022-08-03T19:42:53.016Z,26.10
2022-08-03T19:46:04.507Z,26.00
2022-08-03T19:49:01.969Z,25.90
2022-08-03T19:52:01.366Z,25.90
2022-08-03T19:55:15.975Z,25.80
2022-08-03T19:58:08.160Z,25.70
2022-08-03T20:01:19.151Z,25.60
2022-08-03T20:04:09.190Z,25.60
2022-08-03T20:07:04.997Z,25.50
2022-08-03T20:10:01.391Z,25.40
2022-08-03T20:12:49.694Z,25.40
2022-08-03T20:15:43.015Z,25.30
2022-08-03T20:18:38.939Z,25.30
2022-08-03T20:21:37.066Z,25.20
2022-08-03T20:24:28.085Z,25.20
2022-08-03T20:27:30.024Z,25.20
2022-08-03T20:30:26.386Z,25.10
2022-08-03T20:33:27.703Z,25.00
2022-08-03T20:36:29.419Z,25.00
2022-08-03T20:39:24.084Z,24.90
2022-08-03T20:42:14.761Z,24.90
2022-08-03T20:45:59.883Z,24.90
2022-08-03T20:48:23.975Z,24.80
2022-08-03T20:51:20.048Z,24.80
2022-08-03T20:54:33.106Z,24.70
2022-08-03T20:57:28.084Z,24.70
2022-08-03T21:00:22.176Z,24.60
2022-08-03T21:03:16.079Z,24.60
2022-08-03T21:06:07.036Z,24.60
2022-08-03T21:09:12.086Z,24.50
2022-08-03T21:12:03.582Z,24.50
2022-08-03T21:15:08.152Z,24.50
2022-08-03T21:17:57.539Z,24.40
2022-08-03T21:20:53.097Z,24.40
2022-08-03T21:23:49.751Z,24.40
2022-08-03T21:26:46.155Z,24.30
2022-08-03T21:29:34.769Z,24.30
2022-08-03T21:32:50.143Z,24.30
2022-08-03T21:35:44.120Z,24.20
2022-08-03T21:38:39.182Z,24.20
2022-08-03T21:41:29.237Z,24.20
2022-08-03T21:44:28.758Z,24.10
2022-08-03T21:47:17.917Z,24.10
2022-08-03T21:50:15.153Z,24.10
2022-08-03T21:53:03.301Z,24.00
2022-08-03T21:56:14.144Z,24.00
2022-08-03T21:59:06.009Z,24.00
2022-08-03T22:02:00.272Z,24.00
2022-08-03T22:04:56.247Z,24.00
2022-08-03T22:07:45.612Z,23.90
2022-08-03T22:10:39.206Z,23.90
2022-08-03T22:13:43.842Z,23.90
2022-08-03T22:16:38.212Z,23.90
2022-08-03T22:19:32.247Z,23.90
2022-08-03T22:22:30.190Z,23.80
2022-08-03T22:25:24.307Z,23.80
2022-08-03T22:28:19.208Z,23.80
2022-08-03T22:31:37.628Z,23.80
2022-08-03T22:34:26.536Z,23.70
2022-08-03T22:37:25.291Z,23.70
2022-08-03T22:40:20.233Z,23.70
2022-08-03T22:43:14.245Z,23.70
2022-08-03T22:46:10.106Z,23.60
2022-08-03T22:49:07.316Z,23.60
2022-08-03T22:51:55.995Z,23.60
2022-08-03T22:54:50.244Z,23.60
2022-08-03T22:57:45.288Z,23.50
2022-08-03T23:00:48.238Z,23.50
2022-08-03T23:04:00.775Z,23.40
2022-08-03T23:06:58.259Z,23.40
2022-08-03T23:09:54.288Z,23.40
2022-08-03T23:12:50.329Z,23.30
2022-08-03T23:15:44.378Z,23.30
2022-08-03T23:18:37.333Z,23.30
2022-08-03T23:21:52.884Z,23.30
2022-08-03T23:24:41.561Z,23.20
2022-08-03T23:27:40.316Z,23.20
2022-08-03T23:30:31.634Z,23.20
2022-08-03T23:33:25.372Z,23.20
2022-08-03T23:36:31.037Z,23.20
2022-08-03T23:39:19.514Z,23.10
2022-08-03T23:42:13.342Z,23.10
2022-08-03T23:45:05.954Z,23.00
2022-08-03T23:48:00.334Z,23.00
2022-08-03T23:50:53.154Z,23.00
2022-08-03T23:54:06.358Z,23.00
2022-08-03T23:57:18.405Z,23.00
